sensor_id;sensor_type;location;lat;lon;timestamp;P1;durP1;ratioP1;P2;durP2;ratioP2
76712;SDS011;65640;43.154;25.658;2024-01-27T00:01:04;4.22;;;2.05;;
76712;SDS011;65640;43.154;25.658;2024-01-27T00:03:30;4.10;;;1.70;;
76712;SDS011;65640;43.154;25.658;2024-01-27T00:05:55;4.85;;;2.00;;
76712;SDS011;65640;43.154;25.658;2024-01-27T00:08:21;4.22;;;1.73;;
76712;SDS011;65640;43.154;25.658;2024-01-27T00:10:46;3.97;;;1.60;;
76712;SDS011;65640;43.154;25.658;2024-01-27T00:13:12;2.40;;;2.05;;
76712;SDS011;65640;43.154;25.658;2024-01-27T00:15:38;2.65;;;1.65;;
76712;SDS011;65640;43.154;25.658;2024-01-27T00:18:03;3.42;;;1.48;;
76712;SDS011;65640;43.154;25.658;2024-01-27T00:20:29;4.70;;;2.33;;
76712;SDS011;65640;43.154;25.658;2024-01-27T00:22:54;4.22;;;2.25;;
76712;SDS011;65640;43.154;25.658;2024-01-27T00:25:20;2.78;;;2.22;;
76712;SDS011;65640;43.154;25.658;2024-01-27T00:27:45;5.03;;;1.95;;
76712;SDS011;65640;43.154;25.658;2024-01-27T00:30:11;2.85;;;2.00;;
76712;SDS011;65640;43.154;25.658;2024-01-27T00:32:37;3.40;;;1.92;;
76712;SDS011;65640;43.154;25.658;2024-01-27T00:35:02;4.47;;;2.22;;
76712;SDS011;65640;43.154;25.658;2024-01-27T00:37:28;6.78;;;2.20;;
76712;SDS011;65640;43.154;25.658;2024-01-27T00:39:54;4.28;;;2.00;;
76712;SDS011;65640;43.154;25.658;2024-01-27T00:42:19;4.82;;;1.77;;
76712;SDS011;65640;43.154;25.658;2024-01-27T00:44:49;3.15;;;1.63;;
76712;SDS011;65640;43.154;25.658;2024-01-27T00:47:15;3.55;;;2.30;;
76712;SDS011;65640;43.154;25.658;2024-01-27T00:49:40;5.95;;;2.40;;
76712;SDS011;65640;43.154;25.658;2024-01-27T00:52:05;3.53;;;2.00;;
76712;SDS011;65640;43.154;25.658;2024-01-27T00:54:31;3.80;;;2.13;;
76712;SDS011;65640;43.154;25.658;2024-01-27T00:56:56;4.72;;;1.75;;
76712;SDS011;65640;43.154;25.658;2024-01-27T00:59:22;2.63;;;2.22;;
76712;SDS011;65640;43.154;25.658;2024-01-27T01:01:47;5.97;;;2.42;;
76712;SDS011;65640;43.154;25.658;2024-01-27T01:04:13;6.18;;;3.42;;
76712;SDS011;65640;43.154;25.658;2024-01-27T01:06:39;8.13;;;2.78;;
76712;SDS011;65640;43.154;25.658;2024-01-27T01:09:05;4.88;;;2.50;;
76712;SDS011;65640;43.154;25.658;2024-01-27T01:11:30;5.45;;;2.60;;
76712;SDS011;65640;43.154;25.658;2024-01-27T01:13:56;6.22;;;2.40;;
76712;SDS011;65640;43.154;25.658;2024-01-27T01:16:21;9.63;;;2.25;;
76712;SDS011;65640;43.154;25.658;2024-01-27T01:18:47;2.20;;;1.60;;
76712;SDS011;65640;43.154;25.658;2024-01-27T01:21:12;4.10;;;1.80;;
76712;SDS011;65640;43.154;25.658;2024-01-27T01:23:38;4.18;;;1.92;;
76712;SDS011;65640;43.154;25.658;2024-01-27T01:26:03;4.40;;;1.63;;
76712;SDS011;65640;43.154;25.658;2024-01-27T01:28:29;2.30;;;1.50;;
76712;SDS011;65640;43.154;25.658;2024-01-27T01:30:55;2.22;;;1.40;;
76712;SDS011;65640;43.154;25.658;2024-01-27T01:33:21;2.83;;;1.52;;
76712;SDS011;65640;43.154;25.658;2024-01-27T01:35:46;3.80;;;1.55;;
76712;SDS011;65640;43.154;25.658;2024-01-27T01:38:11;3.88;;;1.40;;
76712;SDS011;65640;43.154;25.658;2024-01-27T01:40:37;5.22;;;1.80;;
76712;SDS011;65640;43.154;25.658;2024-01-27T01:43:02;4.57;;;1.83;;
76712;SDS011;65640;43.154;25.658;2024-01-27T01:45:29;1.92;;;1.42;;
76712;SDS011;65640;43.154;25.658;2024-01-27T01:47:56;6.00;;;1.45;;
76712;SDS011;65640;43.154;25.658;2024-01-27T01:50:21;3.35;;;1.60;;
76712;SDS011;65640;43.154;25.658;2024-01-27T01:52:50;1.48;;;1.23;;
76712;SDS011;65640;43.154;25.658;2024-01-27T01:55:17;2.85;;;1.33;;
76712;SDS011;65640;43.154;25.658;2024-01-27T01:57:43;2.63;;;1.38;;
76712;SDS011;65640;43.154;25.658;2024-01-27T02:00:09;2.88;;;1.38;;
76712;SDS011;65640;43.154;25.658;2024-01-27T02:02:35;1.70;;;1.35;;
76712;SDS011;65640;43.154;25.658;2024-01-27T02:05:00;2.78;;;1.50;;
76712;SDS011;65640;43.154;25.658;2024-01-27T02:07:26;2.30;;;1.45;;
76712;SDS011;65640;43.154;25.658;2024-01-27T02:09:52;10.38;;;2.35;;
76712;SDS011;65640;43.154;25.658;2024-01-27T02:12:17;3.67;;;2.10;;
76712;SDS011;65640;43.154;25.658;2024-01-27T02:14:43;3.33;;;2.22;;
76712;SDS011;65640;43.154;25.658;2024-01-27T02:17:08;5.45;;;1.90;;
76712;SDS011;65640;43.154;25.658;2024-01-27T02:19:34;4.68;;;1.88;;
76712;SDS011;65640;43.154;25.658;2024-01-27T02:21:59;2.58;;;1.35;;
76712;SDS011;65640;43.154;25.658;2024-01-27T02:24:24;4.15;;;1.60;;
76712;SDS011;65640;43.154;25.658;2024-01-27T02:26:50;4.38;;;1.70;;
76712;SDS011;65640;43.154;25.658;2024-01-27T02:29:15;6.20;;;3.00;;
76712;SDS011;65640;43.154;25.658;2024-01-27T02:31:41;3.90;;;2.58;;
76712;SDS011;65640;43.154;25.658;2024-01-27T02:34:06;9.05;;;3.10;;
76712;SDS011;65640;43.154;25.658;2024-01-27T02:36:32;10.25;;;3.40;;
76712;SDS011;65640;43.154;25.658;2024-01-27T02:38:57;6.82;;;2.63;;
76712;SDS011;65640;43.154;25.658;2024-01-27T02:41:23;7.45;;;3.33;;
76712;SDS011;65640;43.154;25.658;2024-01-27T02:43:48;4.88;;;2.03;;
76712;SDS011;65640;43.154;25.658;2024-01-27T02:46:13;9.90;;;3.65;;
76712;SDS011;65640;43.154;25.658;2024-01-27T02:48:41;4.85;;;2.33;;
76712;SDS011;65640;43.154;25.658;2024-01-27T02:51:10;8.07;;;3.15;;
76712;SDS011;65640;43.154;25.658;2024-01-27T02:53:35;18.70;;;6.45;;
76712;SDS011;65640;43.154;25.658;2024-01-27T02:56:01;3.55;;;1.60;;
76712;SDS011;65640;43.154;25.658;2024-01-27T02:58:26;6.90;;;2.53;;
76712;SDS011;65640;43.154;25.658;2024-01-27T03:00:52;4.68;;;2.70;;
76712;SDS011;65640;43.154;25.658;2024-01-27T03:03:17;6.78;;;1.70;;
76712;SDS011;65640;43.154;25.658;2024-01-27T03:05:43;2.78;;;1.88;;
76712;SDS011;65640;43.154;25.658;2024-01-27T03:08:09;3.28;;;1.73;;
76712;SDS011;65640;43.154;25.658;2024-01-27T03:10:34;1.92;;;1.27;;
76712;SDS011;65640;43.154;25.658;2024-01-27T03:13:00;2.80;;;1.35;;
76712;SDS011;65640;43.154;25.658;2024-01-27T03:15:25;5.70;;;2.28;;
76712;SDS011;65640;43.154;25.658;2024-01-27T03:17:51;6.38;;;2.20;;
76712;SDS011;65640;43.154;25.658;2024-01-27T03:20:16;6.85;;;1.80;;
76712;SDS011;65640;43.154;25.658;2024-01-27T03:22:41;1.20;;;0.73;;
76712;SDS011;65640;43.154;25.658;2024-01-27T03:25:07;65.22;;;18.65;;
76712;SDS011;65640;43.154;25.658;2024-01-27T03:27:34;35.80;;;11.07;;
76712;SDS011;65640;43.154;25.658;2024-01-27T03:30:00;26.95;;;9.35;;
76712;SDS011;65640;43.154;25.658;2024-01-27T03:32:27;5.70;;;2.42;;
76712;SDS011;65640;43.154;25.658;2024-01-27T03:34:52;5.63;;;1.85;;
76712;SDS011;65640;43.154;25.658;2024-01-27T03:37:18;3.85;;;1.50;;
76712;SDS011;65640;43.154;25.658;2024-01-27T03:39:43;3.72;;;2.65;;
76712;SDS011;65640;43.154;25.658;2024-01-27T03:42:09;2.60;;;1.70;;
76712;SDS011;65640;43.154;25.658;2024-01-27T03:44:34;2.58;;;1.55;;
76712;SDS011;65640;43.154;25.658;2024-01-27T03:47:00;7.93;;;3.13;;
76712;SDS011;65640;43.154;25.658;2024-01-27T03:49:25;5.95;;;2.50;;
76712;SDS011;65640;43.154;25.658;2024-01-27T03:51:51;4.80;;;2.95;;
76712;SDS011;65640;43.154;25.658;2024-01-27T03:54:16;11.60;;;4.20;;
76712;SDS011;65640;43.154;25.658;2024-01-27T03:56:41;5.07;;;2.13;;
76712;SDS011;65640;43.154;25.658;2024-01-27T03:59:07;8.35;;;4.05;;
76712;SDS011;65640;43.154;25.658;2024-01-27T04:01:34;7.47;;;2.83;;
76712;SDS011;65640;43.154;25.658;2024-01-27T04:04:00;5.90;;;1.95;;
76712;SDS011;65640;43.154;25.658;2024-01-27T04:06:25;8.15;;;3.90;;
76712;SDS011;65640;43.154;25.658;2024-01-27T04:08:51;5.15;;;1.95;;
76712;SDS011;65640;43.154;25.658;2024-01-27T04:11:20;8.40;;;3.67;;
76712;SDS011;65640;43.154;25.658;2024-01-27T04:13:48;15.52;;;6.45;;
76712;SDS011;65640;43.154;25.658;2024-01-27T04:16:15;15.18;;;4.68;;
76712;SDS011;65640;43.154;25.658;2024-01-27T04:18:41;12.00;;;5.43;;
76712;SDS011;65640;43.154;25.658;2024-01-27T04:21:07;10.88;;;4.72;;
76712;SDS011;65640;43.154;25.658;2024-01-27T04:23:32;9.18;;;2.58;;
76712;SDS011;65640;43.154;25.658;2024-01-27T04:25:58;3.47;;;2.63;;
76712;SDS011;65640;43.154;25.658;2024-01-27T04:28:24;8.80;;;4.40;;
76712;SDS011;65640;43.154;25.658;2024-01-27T04:30:49;6.60;;;3.38;;
76712;SDS011;65640;43.154;25.658;2024-01-27T04:33:15;9.10;;;4.82;;
76712;SDS011;65640;43.154;25.658;2024-01-27T04:35:40;11.40;;;4.78;;
76712;SDS011;65640;43.154;25.658;2024-01-27T04:38:07;6.70;;;4.22;;
76712;SDS011;65640;43.154;25.658;2024-01-27T04:40:33;6.97;;;3.60;;
76712;SDS011;65640;43.154;25.658;2024-01-27T04:43:00;8.65;;;4.35;;
76712;SDS011;65640;43.154;25.658;2024-01-27T04:45:26;12.13;;;5.70;;
76712;SDS011;65640;43.154;25.658;2024-01-27T04:47:52;12.35;;;6.15;;
76712;SDS011;65640;43.154;25.658;2024-01-27T04:50:18;14.20;;;6.55;;
76712;SDS011;65640;43.154;25.658;2024-01-27T04:52:44;19.75;;;6.75;;
76712;SDS011;65640;43.154;25.658;2024-01-27T04:55:10;14.90;;;5.43;;
76712;SDS011;65640;43.154;25.658;2024-01-27T04:57:35;16.85;;;5.57;;
76712;SDS011;65640;43.154;25.658;2024-01-27T05:00:01;11.38;;;4.28;;
76712;SDS011;65640;43.154;25.658;2024-01-27T05:02:27;7.35;;;4.05;;
76712;SDS011;65640;43.154;25.658;2024-01-27T05:04:52;15.98;;;7.30;;
76712;SDS011;65640;43.154;25.658;2024-01-27T05:07:17;22.65;;;9.77;;
76712;SDS011;65640;43.154;25.658;2024-01-27T05:09:43;17.77;;;8.63;;
76712;SDS011;65640;43.154;25.658;2024-01-27T05:12:08;14.15;;;6.50;;
76712;SDS011;65640;43.154;25.658;2024-01-27T05:14:34;6.85;;;4.68;;
76712;SDS011;65640;43.154;25.658;2024-01-27T05:16:59;9.13;;;4.32;;
76712;SDS011;65640;43.154;25.658;2024-01-27T05:19:25;7.60;;;4.53;;
76712;SDS011;65640;43.154;25.658;2024-01-27T05:21:50;4.80;;;4.25;;
76712;SDS011;65640;43.154;25.658;2024-01-27T05:24:15;6.25;;;3.70;;
76712;SDS011;65640;43.154;25.658;2024-01-27T05:26:41;3.50;;;3.17;;
76712;SDS011;65640;43.154;25.658;2024-01-27T05:29:06;6.47;;;4.13;;
76712;SDS011;65640;43.154;25.658;2024-01-27T05:31:32;6.60;;;4.72;;
76712;SDS011;65640;43.154;25.658;2024-01-27T05:33:58;5.18;;;3.35;;
76712;SDS011;65640;43.154;25.658;2024-01-27T05:36:24;5.32;;;3.72;;
76712;SDS011;65640;43.154;25.658;2024-01-27T05:38:49;5.40;;;4.30;;
76712;SDS011;65640;43.154;25.658;2024-01-27T05:41:15;5.95;;;4.30;;
76712;SDS011;65640;43.154;25.658;2024-01-27T05:43:40;17.00;;;10.18;;
76712;SDS011;65640;43.154;25.658;2024-01-27T05:46:06;13.73;;;9.27;;
76712;SDS011;65640;43.154;25.658;2024-01-27T05:48:34;12.23;;;5.68;;
76712;SDS011;65640;43.154;25.658;2024-01-27T05:51:00;5.03;;;3.30;;
76712;SDS011;65640;43.154;25.658;2024-01-27T05:53:26;8.68;;;3.95;;
76712;SDS011;65640;43.154;25.658;2024-01-27T05:55:52;5.65;;;3.80;;
76712;SDS011;65640;43.154;25.658;2024-01-27T05:58:24;6.88;;;4.72;;
76712;SDS011;65640;43.154;25.658;2024-01-27T06:00:49;5.10;;;4.40;;
76712;SDS011;65640;43.154;25.658;2024-01-27T06:03:15;11.80;;;7.00;;
76712;SDS011;65640;43.154;25.658;2024-01-27T06:05:42;7.82;;;4.82;;
76712;SDS011;65640;43.154;25.658;2024-01-27T06:08:07;3.75;;;3.25;;
76712;SDS011;65640;43.154;25.658;2024-01-27T06:10:33;13.57;;;3.15;;
76712;SDS011;65640;43.154;25.658;2024-01-27T06:13:01;5.10;;;3.25;;
76712;SDS011;65640;43.154;25.658;2024-01-27T06:15:27;3.92;;;3.53;;
76712;SDS011;65640;43.154;25.658;2024-01-27T06:17:52;3.88;;;3.38;;
76712;SDS011;65640;43.154;25.658;2024-01-27T06:20:18;8.05;;;3.33;;
76712;SDS011;65640;43.154;25.658;2024-01-27T06:22:43;5.35;;;3.70;;
76712;SDS011;65640;43.154;25.658;2024-01-27T06:25:09;5.53;;;2.22;;
76712;SDS011;65640;43.154;25.658;2024-01-27T06:27:35;5.15;;;2.03;;
76712;SDS011;65640;43.154;25.658;2024-01-27T06:30:01;6.30;;;3.03;;
76712;SDS011;65640;43.154;25.658;2024-01-27T06:32:26;3.63;;;1.98;;
76712;SDS011;65640;43.154;25.658;2024-01-27T06:34:52;3.20;;;1.45;;
76712;SDS011;65640;43.154;25.658;2024-01-27T06:37:17;2.20;;;1.88;;
76712;SDS011;65640;43.154;25.658;2024-01-27T06:39:43;7.28;;;2.47;;
76712;SDS011;65640;43.154;25.658;2024-01-27T06:42:08;3.70;;;1.73;;
76712;SDS011;65640;43.154;25.658;2024-01-27T06:44:33;2.45;;;1.60;;
76712;SDS011;65640;43.154;25.658;2024-01-27T06:46:59;2.03;;;1.80;;
76712;SDS011;65640;43.154;25.658;2024-01-27T06:49:24;5.43;;;1.92;;
76712;SDS011;65640;43.154;25.658;2024-01-27T06:51:49;3.45;;;2.22;;
76712;SDS011;65640;43.154;25.658;2024-01-27T06:54:15;5.85;;;2.10;;
76712;SDS011;65640;43.154;25.658;2024-01-27T06:56:40;4.32;;;1.98;;
76712;SDS011;65640;43.154;25.658;2024-01-27T06:59:06;5.45;;;2.13;;
76712;SDS011;65640;43.154;25.658;2024-01-27T07:01:31;2.40;;;2.15;;
76712;SDS011;65640;43.154;25.658;2024-01-27T07:03:56;3.88;;;1.33;;
76712;SDS011;65640;43.154;25.658;2024-01-27T07:06:22;2.13;;;1.42;;
76712;SDS011;65640;43.154;25.658;2024-01-27T07:08:47;2.42;;;1.63;;
76712;SDS011;65640;43.154;25.658;2024-01-27T07:11:13;3.17;;;1.65;;
76712;SDS011;65640;43.154;25.658;2024-01-27T07:13:38;5.03;;;3.15;;
76712;SDS011;65640;43.154;25.658;2024-01-27T07:16:04;3.63;;;2.70;;
76712;SDS011;65640;43.154;25.658;2024-01-27T07:18:30;5.28;;;3.17;;
76712;SDS011;65640;43.154;25.658;2024-01-27T07:20:55;2.83;;;1.58;;
76712;SDS011;65640;43.154;25.658;2024-01-27T07:23:24;1.83;;;1.42;;
76712;SDS011;65640;43.154;25.658;2024-01-27T07:25:49;2.63;;;1.55;;
76712;SDS011;65640;43.154;25.658;2024-01-27T07:28:15;6.47;;;0.95;;
76712;SDS011;65640;43.154;25.658;2024-01-27T07:30:41;4.20;;;1.00;;
76712;SDS011;65640;43.154;25.658;2024-01-27T07:33:06;1.75;;;1.02;;
76712;SDS011;65640;43.154;25.658;2024-01-27T07:35:32;3.10;;;1.23;;
76712;SDS011;65640;43.154;25.658;2024-01-27T07:37:57;1.55;;;1.08;;
76712;SDS011;65640;43.154;25.658;2024-01-27T07:40:22;1.70;;;1.20;;
76712;SDS011;65640;43.154;25.658;2024-01-27T07:42:48;3.80;;;1.63;;
76712;SDS011;65640;43.154;25.658;2024-01-27T07:45:13;3.50;;;1.85;;
76712;SDS011;65640;43.154;25.658;2024-01-27T07:47:39;4.40;;;1.50;;
76712;SDS011;65640;43.154;25.658;2024-01-27T07:50:04;3.55;;;2.53;;
76712;SDS011;65640;43.154;25.658;2024-01-27T07:52:30;9.07;;;3.42;;
76712;SDS011;65640;43.154;25.658;2024-01-27T07:54:55;9.90;;;4.13;;
76712;SDS011;65640;43.154;25.658;2024-01-27T07:57:21;11.50;;;5.43;;
76712;SDS011;65640;43.154;25.658;2024-01-27T07:59:46;13.75;;;4.75;;
76712;SDS011;65640;43.154;25.658;2024-01-27T08:02:12;6.72;;;3.70;;
76712;SDS011;65640;43.154;25.658;2024-01-27T08:04:38;19.27;;;8.55;;
76712;SDS011;65640;43.154;25.658;2024-01-27T08:07:03;20.08;;;7.70;;
76712;SDS011;65640;43.154;25.658;2024-01-27T08:09:34;9.60;;;4.75;;
76712;SDS011;65640;43.154;25.658;2024-01-27T08:12:00;5.75;;;3.00;;
76712;SDS011;65640;43.154;25.658;2024-01-27T08:14:26;6.78;;;3.72;;
76712;SDS011;65640;43.154;25.658;2024-01-27T08:16:53;8.05;;;3.75;;
76712;SDS011;65640;43.154;25.658;2024-01-27T08:19:18;4.55;;;3.00;;
76712;SDS011;65640;43.154;25.658;2024-01-27T08:21:45;4.25;;;2.42;;
76712;SDS011;65640;43.154;25.658;2024-01-27T08:24:12;13.48;;;6.65;;
76712;SDS011;65640;43.154;25.658;2024-01-27T08:26:38;9.98;;;3.50;;
76712;SDS011;65640;43.154;25.658;2024-01-27T08:29:03;7.18;;;4.15;;
76712;SDS011;65640;43.154;25.658;2024-01-27T08:31:29;8.77;;;3.67;;
76712;SDS011;65640;43.154;25.658;2024-01-27T08:33:54;3.47;;;2.22;;
76712;SDS011;65640;43.154;25.658;2024-01-27T08:36:20;7.45;;;3.88;;
76712;SDS011;65640;43.154;25.658;2024-01-27T08:38:45;21.52;;;6.80;;
76712;SDS011;65640;43.154;25.658;2024-01-27T08:41:11;34.90;;;12.13;;
76712;SDS011;65640;43.154;25.658;2024-01-27T08:43:37;25.85;;;7.85;;
76712;SDS011;65640;43.154;25.658;2024-01-27T08:46:03;22.15;;;8.10;;
76712;SDS011;65640;43.154;25.658;2024-01-27T08:48:28;19.80;;;7.40;;
76712;SDS011;65640;43.154;25.658;2024-01-27T08:50:53;35.92;;;11.85;;
76712;SDS011;65640;43.154;25.658;2024-01-27T08:53:19;103.68;;;25.63;;
76712;SDS011;65640;43.154;25.658;2024-01-27T08:55:44;170.93;;;36.45;;
76712;SDS011;65640;43.154;25.658;2024-01-27T08:58:10;22.73;;;7.18;;
76712;SDS011;65640;43.154;25.658;2024-01-27T09:00:35;6.63;;;3.10;;
76712;SDS011;65640;43.154;25.658;2024-01-27T09:03:00;2.92;;;2.20;;
76712;SDS011;65640;43.154;25.658;2024-01-27T09:05:27;6.78;;;2.53;;
76712;SDS011;65640;43.154;25.658;2024-01-27T09:07:53;2.70;;;2.20;;
76712;SDS011;65640;43.154;25.658;2024-01-27T09:10:18;4.05;;;2.38;;
76712;SDS011;65640;43.154;25.658;2024-01-27T09:12:44;2.42;;;1.77;;
76712;SDS011;65640;43.154;25.658;2024-01-27T09:15:09;2.58;;;2.38;;
76712;SDS011;65640;43.154;25.658;2024-01-27T09:17:35;2.33;;;1.52;;
76712;SDS011;65640;43.154;25.658;2024-01-27T09:20:01;2.75;;;2.00;;
76712;SDS011;65640;43.154;25.658;2024-01-27T09:22:26;2.30;;;2.10;;
76712;SDS011;65640;43.154;25.658;2024-01-27T09:24:52;3.35;;;2.33;;
76712;SDS011;65640;43.154;25.658;2024-01-27T09:27:18;2.35;;;2.15;;
76712;SDS011;65640;43.154;25.658;2024-01-27T09:29:43;2.75;;;2.53;;
76712;SDS011;65640;43.154;25.658;2024-01-27T09:32:09;6.82;;;2.65;;
76712;SDS011;65640;43.154;25.658;2024-01-27T09:34:34;2.17;;;1.98;;
76712;SDS011;65640;43.154;25.658;2024-01-27T09:37:00;10.70;;;2.60;;
76712;SDS011;65640;43.154;25.658;2024-01-27T09:39:26;3.58;;;3.25;;
76712;SDS011;65640;43.154;25.658;2024-01-27T09:41:52;2.72;;;2.20;;
76712;SDS011;65640;43.154;25.658;2024-01-27T09:44:19;4.68;;;2.90;;
76712;SDS011;65640;43.154;25.658;2024-01-27T09:46:45;3.92;;;2.83;;
76712;SDS011;65640;43.154;25.658;2024-01-27T09:49:12;6.97;;;3.70;;
76712;SDS011;65640;43.154;25.658;2024-01-27T09:51:40;5.45;;;2.90;;
76712;SDS011;65640;43.154;25.658;2024-01-27T09:54:06;2.85;;;2.60;;
76712;SDS011;65640;43.154;25.658;2024-01-27T09:56:32;3.90;;;3.40;;
76712;SDS011;65640;43.154;25.658;2024-01-27T09:58:58;2.75;;;2.55;;
76712;SDS011;65640;43.154;25.658;2024-01-27T10:01:24;3.15;;;2.67;;
76712;SDS011;65640;43.154;25.658;2024-01-27T10:03:50;5.75;;;3.15;;
76712;SDS011;65640;43.154;25.658;2024-01-27T10:06:16;2.72;;;2.53;;
76712;SDS011;65640;43.154;25.658;2024-01-27T10:08:43;3.17;;;2.88;;
76712;SDS011;65640;43.154;25.658;2024-01-27T10:11:17;5.75;;;4.13;;
76712;SDS011;65640;43.154;25.658;2024-01-27T10:13:45;4.22;;;3.03;;
76712;SDS011;65640;43.154;25.658;2024-01-27T10:16:10;5.60;;;3.00;;
76712;SDS011;65640;43.154;25.658;2024-01-27T10:18:37;2.78;;;2.58;;
76712;SDS011;65640;43.154;25.658;2024-01-27T10:21:17;2.90;;;2.60;;
76712;SDS011;65640;43.154;25.658;2024-01-27T10:23:45;4.45;;;2.30;;
76712;SDS011;65640;43.154;25.658;2024-01-27T10:26:10;3.92;;;3.45;;
76712;SDS011;65640;43.154;25.658;2024-01-27T10:28:36;2.78;;;2.20;;
76712;SDS011;65640;43.154;25.658;2024-01-27T10:31:11;2.95;;;2.60;;
76712;SDS011;65640;43.154;25.658;2024-01-27T10:33:37;5.95;;;2.35;;
76712;SDS011;65640;43.154;25.658;2024-01-27T10:36:03;3.15;;;2.88;;
76712;SDS011;65640;43.154;25.658;2024-01-27T10:41:01;3.80;;;3.45;;
76712;SDS011;65640;43.154;25.658;2024-01-27T10:43:26;2.97;;;2.67;;
76712;SDS011;65640;43.154;25.658;2024-01-27T10:45:53;6.68;;;3.85;;
76712;SDS011;65640;43.154;25.658;2024-01-27T10:48:20;5.72;;;3.70;;
76712;SDS011;65640;43.154;25.658;2024-01-27T10:50:46;3.85;;;3.10;;
76712;SDS011;65640;43.154;25.658;2024-01-27T10:53:22;5.22;;;3.63;;
76712;SDS011;65640;43.154;25.658;2024-01-27T10:55:57;5.25;;;4.03;;
76712;SDS011;65640;43.154;25.658;2024-01-27T10:58:23;5.85;;;3.75;;
76712;SDS011;65640;43.154;25.658;2024-01-27T11:00:50;7.60;;;3.50;;
76712;SDS011;65640;43.154;25.658;2024-01-27T11:03:18;4.25;;;2.75;;
76712;SDS011;65640;43.154;25.658;2024-01-27T11:05:44;2.88;;;2.30;;
76712;SDS011;65640;43.154;25.658;2024-01-27T11:08:12;3.55;;;3.00;;
76712;SDS011;65640;43.154;25.658;2024-01-27T11:13:04;3.28;;;2.55;;
76712;SDS011;65640;43.154;25.658;2024-01-27T11:15:30;5.22;;;2.30;;
76712;SDS011;65640;43.154;25.658;2024-01-27T11:17:57;3.58;;;2.75;;
76712;SDS011;65640;43.154;25.658;2024-01-27T11:20:24;4.30;;;2.72;;
76712;SDS011;65640;43.154;25.658;2024-01-27T11:22:50;2.47;;;2.28;;
76712;SDS011;65640;43.154;25.658;2024-01-27T11:25:17;5.18;;;2.83;;
76712;SDS011;65640;43.154;25.658;2024-01-27T11:27:44;4.60;;;3.42;;
76712;SDS011;65640;43.154;25.658;2024-01-27T11:30:26;4.20;;;2.40;;
76712;SDS011;65640;43.154;25.658;2024-01-27T11:32:54;3.88;;;2.58;;
76712;SDS011;65640;43.154;25.658;2024-01-27T11:35:20;2.75;;;2.38;;
76712;SDS011;65640;43.154;25.658;2024-01-27T11:37:46;3.10;;;2.70;;
76712;SDS011;65640;43.154;25.658;2024-01-27T11:42:39;5.35;;;3.67;;
76712;SDS011;65640;43.154;25.658;2024-01-27T11:45:04;3.30;;;3.00;;
76712;SDS011;65640;43.154;25.658;2024-01-27T11:47:30;3.45;;;2.33;;
76712;SDS011;65640;43.154;25.658;2024-01-27T11:49:56;2.47;;;2.28;;
76712;SDS011;65640;43.154;25.658;2024-01-27T11:52:22;3.65;;;3.10;;
76712;SDS011;65640;43.154;25.658;2024-01-27T11:57:21;3.75;;;2.60;;
76712;SDS011;65640;43.154;25.658;2024-01-27T11:59:47;3.58;;;2.92;;
76712;SDS011;65640;43.154;25.658;2024-01-27T12:02:12;4.43;;;2.50;;
76712;SDS011;65640;43.154;25.658;2024-01-27T12:04:38;2.63;;;2.33;;
76712;SDS011;65640;43.154;25.658;2024-01-27T12:07:03;10.98;;;4.78;;
76712;SDS011;65640;43.154;25.658;2024-01-27T12:09:29;4.88;;;3.50;;
76712;SDS011;65640;43.154;25.658;2024-01-27T12:11:54;5.35;;;2.60;;
76712;SDS011;65640;43.154;25.658;2024-01-27T12:14:20;4.55;;;3.75;;
76712;SDS011;65640;43.154;25.658;2024-01-27T12:16:45;9.45;;;3.10;;
76712;SDS011;65640;43.154;25.658;2024-01-27T12:21:38;4.05;;;2.75;;
76712;SDS011;65640;43.154;25.658;2024-01-27T12:24:03;4.00;;;2.60;;
76712;SDS011;65640;43.154;25.658;2024-01-27T12:26:29;2.42;;;2.20;;
76712;SDS011;65640;43.154;25.658;2024-01-27T12:28:56;2.45;;;2.25;;
76712;SDS011;65640;43.154;25.658;2024-01-27T12:31:25;3.97;;;2.05;;
76712;SDS011;65640;43.154;25.658;2024-01-27T12:33:51;2.22;;;2.00;;
76712;SDS011;65640;43.154;25.658;2024-01-27T12:41:26;1.95;;;1.85;;
76712;SDS011;65640;43.154;25.658;2024-01-27T12:43:53;1.58;;;1.48;;
76712;SDS011;65640;43.154;25.658;2024-01-27T12:46:19;1.55;;;1.45;;
76712;SDS011;65640;43.154;25.658;2024-01-27T12:48:45;3.30;;;1.70;;
76712;SDS011;65640;43.154;25.658;2024-01-27T12:51:10;2.10;;;1.90;;
76712;SDS011;65640;43.154;25.658;2024-01-27T12:53:38;1.08;;;0.98;;
76712;SDS011;65640;43.154;25.658;2024-01-27T12:56:07;1.35;;;1.25;;
76712;SDS011;65640;43.154;25.658;2024-01-27T12:58:36;1.20;;;1.10;;
76712;SDS011;65640;43.154;25.658;2024-01-27T13:01:02;1.42;;;1.30;;
76712;SDS011;65640;43.154;25.658;2024-01-27T13:03:27;1.63;;;1.15;;
76712;SDS011;65640;43.154;25.658;2024-01-27T13:05:53;1.30;;;0.82;;
76712;SDS011;65640;43.154;25.658;2024-01-27T13:08:19;1.70;;;0.75;;
76712;SDS011;65640;43.154;25.658;2024-01-27T13:10:45;1.40;;;1.30;;
76712;SDS011;65640;43.154;25.658;2024-01-27T13:13:10;1.38;;;1.27;;
76712;SDS011;65640;43.154;25.658;2024-01-27T13:15:36;1.52;;;1.40;;
76712;SDS011;65640;43.154;25.658;2024-01-27T13:18:01;1.45;;;1.35;;
76712;SDS011;65640;43.154;25.658;2024-01-27T13:20:26;0.73;;;0.73;;
76712;SDS011;65640;43.154;25.658;2024-01-27T13:22:52;0.80;;;0.80;;
76712;SDS011;65640;43.154;25.658;2024-01-27T13:25:18;1.95;;;1.70;;
76712;SDS011;65640;43.154;25.658;2024-01-27T13:27:44;1.55;;;1.13;;
76712;SDS011;65640;43.154;25.658;2024-01-27T13:30:11;2.75;;;1.80;;
76712;SDS011;65640;43.154;25.658;2024-01-27T13:32:36;1.73;;;0.63;;
76712;SDS011;65640;43.154;25.658;2024-01-27T13:35:02;1.50;;;1.40;;
76712;SDS011;65640;43.154;25.658;2024-01-27T13:37:28;4.38;;;1.40;;
76712;SDS011;65640;43.154;25.658;2024-01-27T13:39:58;1.75;;;1.27;;
76712;SDS011;65640;43.154;25.658;2024-01-27T13:42:27;3.58;;;1.02;;
76712;SDS011;65640;43.154;25.658;2024-01-27T13:44:53;1.08;;;0.90;;
76712;SDS011;65640;43.154;25.658;2024-01-27T13:47:18;2.10;;;1.02;;
76712;SDS011;65640;43.154;25.658;2024-01-27T13:49:44;1.40;;;1.05;;
76712;SDS011;65640;43.154;25.658;2024-01-27T13:52:09;1.80;;;0.65;;
76712;SDS011;65640;43.154;25.658;2024-01-27T13:54:36;0.93;;;0.93;;
76712;SDS011;65640;43.154;25.658;2024-01-27T13:57:02;1.63;;;0.63;;
76712;SDS011;65640;43.154;25.658;2024-01-27T13:59:27;0.57;;;0.57;;
76712;SDS011;65640;43.154;25.658;2024-01-27T14:01:53;2.28;;;1.27;;
76712;SDS011;65640;43.154;25.658;2024-01-27T14:04:19;1.52;;;1.20;;
76712;SDS011;65640;43.154;25.658;2024-01-27T14:06:45;1.85;;;1.00;;
76712;SDS011;65640;43.154;25.658;2024-01-27T14:09:11;2.08;;;0.73;;
76712;SDS011;65640;43.154;25.658;2024-01-27T14:11:38;1.55;;;1.02;;
76712;SDS011;65640;43.154;25.658;2024-01-27T14:14:03;1.40;;;0.73;;
76712;SDS011;65640;43.154;25.658;2024-01-27T14:16:29;1.45;;;1.10;;
76712;SDS011;65640;43.154;25.658;2024-01-27T14:18:54;1.50;;;1.25;;
76712;SDS011;65640;43.154;25.658;2024-01-27T14:21:20;1.38;;;0.98;;
76712;SDS011;65640;43.154;25.658;2024-01-27T14:23:45;3.13;;;1.05;;
76712;SDS011;65640;43.154;25.658;2024-01-27T14:26:11;1.00;;;0.77;;
76712;SDS011;65640;43.154;25.658;2024-01-27T14:28:43;0.55;;;0.55;;
76712;SDS011;65640;43.154;25.658;2024-01-27T14:31:10;1.20;;;1.10;;
76712;SDS011;65640;43.154;25.658;2024-01-27T14:33:35;0.60;;;0.60;;
76712;SDS011;65640;43.154;25.658;2024-01-27T14:36:01;1.38;;;1.27;;
76712;SDS011;65640;43.154;25.658;2024-01-27T14:38:26;6.22;;;2.47;;
76712;SDS011;65640;43.154;25.658;2024-01-27T14:40:52;1.52;;;1.42;;
76712;SDS011;65640;43.154;25.658;2024-01-27T14:43:17;0.70;;;0.70;;